sensor_id;sensor_type;location;lat;lon;timestamp;temperature;humidity
20546;DHT22;10431;50.228;9.112;2023-07-29T00:01:41;20.80;99.90
20546;DHT22;10431;50.228;9.112;2023-07-29T00:04:07;20.80;99.90
20546;DHT22;10431;50.228;9.112;2023-07-29T00:06:35;20.80;99.90
20546;DHT22;10431;50.228;9.112;2023-07-29T00:09:01;20.80;99.90
20546;DHT22;10431;50.228;9.112;2023-07-29T00:11:28;20.80;99.90
20546;DHT22;10431;50.228;9.112;2023-07-29T00:13:54;20.80;99.90
20546;DHT22;10431;50.228;9.112;2023-07-29T00:16:20;20.80;99.90
20546;DHT22;10431;50.228;9.112;2023-07-29T00:18:49;20.80;99.90
20546;DHT22;10431;50.228;9.112;2023-07-29T00:21:15;20.80;99.90
20546;DHT22;10431;50.228;9.112;2023-07-29T00:23:41;20.80;99.90
20546;DHT22;10431;50.228;9.112;2023-07-29T00:26:07;20.80;99.90
20546;DHT22;10431;50.228;9.112;2023-07-29T00:28:33;20.80;99.90
20546;DHT22;10431;50.228;9.112;2023-07-29T00:30:59;20.80;99.90
20546;DHT22;10431;50.228;9.112;2023-07-29T00:33:26;20.90;99.90
20546;DHT22;10431;50.228;9.112;2023-07-29T00:35:52;20.80;99.90
20546;DHT22;10431;50.228;9.112;2023-07-29T00:38:19;20.80;99.90
20546;DHT22;10431;50.228;9.112;2023-07-29T00:40:45;20.80;99.90
20546;DHT22;10431;50.228;9.112;2023-07-29T00:43:11;20.80;99.90
20546;DHT22;10431;50.228;9.112;2023-07-29T00:45:37;20.80;99.90
20546;DHT22;10431;50.228;9.112;2023-07-29T00:48:04;20.80;99.90
20546;DHT22;10431;50.228;9.112;2023-07-29T00:50:30;20.80;99.90
20546;DHT22;10431;50.228;9.112;2023-07-29T00:52:59;20.80;99.90
20546;DHT22;10431;50.228;9.112;2023-07-29T00:55:26;20.90;99.90
20546;DHT22;10431;50.228;9.112;2023-07-29T00:57:52;20.80;99.90
20546;DHT22;10431;50.228;9.112;2023-07-29T01:00:20;20.80;99.90
20546;DHT22;10431;50.228;9.112;2023-07-29T01:02:47;20.80;99.90
20546;DHT22;10431;50.228;9.112;2023-07-29T01:05:14;20.80;99.90
20546;DHT22;10431;50.228;9.112;2023-07-29T01:13:17;20.80;99.90
20546;DHT22;10431;50.228;9.112;2023-07-29T01:15:55;20.80;99.90
20546;DHT22;10431;50.228;9.112;2023-07-29T01:18:28;20.80;99.90
20546;DHT22;10431;50.228;9.112;2023-07-29T01:20:59;20.80;99.90
20546;DHT22;10431;50.228;9.112;2023-07-29T01:23:28;20.80;99.90
20546;DHT22;10431;50.228;9.112;2023-07-29T01:25:55;20.80;99.90
20546;DHT22;10431;50.228;9.112;2023-07-29T01:28:21;20.80;99.90
20546;DHT22;10431;50.228;9.112;2023-07-29T01:30:47;20.80;99.90
20546;DHT22;10431;50.228;9.112;2023-07-29T01:33:16;20.80;99.90
20546;DHT22;10431;50.228;9.112;2023-07-29T01:35:47;20.80;99.90
20546;DHT22;10431;50.228;9.112;2023-07-29T01:38:21;20.80;99.90
20546;DHT22;10431;50.228;9.112;2023-07-29T01:40:50;20.80;99.90
20546;DHT22;10431;50.228;9.112;2023-07-29T01:43:16;20.80;99.90
20546;DHT22;10431;50.228;9.112;2023-07-29T01:45:44;20.80;99.90
20546;DHT22;10431;50.228;9.112;2023-07-29T01:48:10;20.80;99.90
20546;DHT22;10431;50.228;9.112;2023-07-29T01:50:36;20.80;99.90
20546;DHT22;10431;50.228;9.112;2023-07-29T01:53:02;20.80;99.90
20546;DHT22;10431;50.228;9.112;2023-07-29T01:55:28;20.80;99.90
20546;DHT22;10431;50.228;9.112;2023-07-29T01:57:54;20.80;99.90
20546;DHT22;10431;50.228;9.112;2023-07-29T02:00:22;20.80;99.90
20546;DHT22;10431;50.228;9.112;2023-07-29T02:02:48;20.80;99.90
20546;DHT22;10431;50.228;9.112;2023-07-29T02:05:14;20.80;99.90
20546;DHT22;10431;50.228;9.112;2023-07-29T02:07:40;20.80;99.90
20546;DHT22;10431;50.228;9.112;2023-07-29T02:10:06;20.80;99.90
20546;DHT22;10431;50.228;9.112;2023-07-29T02:12:33;20.80;99.90
20546;DHT22;10431;50.228;9.112;2023-07-29T02:15:00;20.80;99.90
20546;DHT22;10431;50.228;9.112;2023-07-29T02:17:26;20.80;99.90
20546;DHT22;10431;50.228;9.112;2023-07-29T02:19:52;20.80;99.90
20546;DHT22;10431;50.228;9.112;2023-07-29T02:22:18;20.80;99.90
20546;DHT22;10431;50.228;9.112;2023-07-29T02:24:44;20.80;99.90
20546;DHT22;10431;50.228;9.112;2023-07-29T02:27:11;20.80;99.90
20546;DHT22;10431;50.228;9.112;2023-07-29T02:29:37;20.80;99.90
20546;DHT22;10431;50.228;9.112;2023-07-29T02:32:03;20.80;99.90
20546;DHT22;10431;50.228;9.112;2023-07-29T02:34:30;20.80;99.90
20546;DHT22;10431;50.228;9.112;2023-07-29T02:36:56;20.80;99.90
20546;DHT22;10431;50.228;9.112;2023-07-29T02:39:22;20.80;99.90
20546;DHT22;10431;50.228;9.112;2023-07-29T02:41:49;20.80;99.90
20546;DHT22;10431;50.228;9.112;2023-07-29T02:44:15;20.80;99.90
20546;DHT22;10431;50.228;9.112;2023-07-29T02:46:41;20.80;99.90
20546;DHT22;10431;50.228;9.112;2023-07-29T02:49:07;20.80;99.90
20546;DHT22;10431;50.228;9.112;2023-07-29T02:51:33;20.80;99.90
20546;DHT22;10431;50.228;9.112;2023-07-29T02:53:59;20.80;99.90
20546;DHT22;10431;50.228;9.112;2023-07-29T02:56:25;20.80;99.90
20546;DHT22;10431;50.228;9.112;2023-07-29T02:58:52;20.80;99.90
20546;DHT22;10431;50.228;9.112;2023-07-29T03:01:18;20.80;99.90
20546;DHT22;10431;50.228;9.112;2023-07-29T03:03:44;20.80;99.90
20546;DHT22;10431;50.228;9.112;2023-07-29T03:06:12;20.80;99.90
20546;DHT22;10431;50.228;9.112;2023-07-29T03:08:39;20.80;99.90
20546;DHT22;10431;50.228;9.112;2023-07-29T03:11:07;20.80;99.90
20546;DHT22;10431;50.228;9.112;2023-07-29T03:13:34;20.80;99.90
20546;DHT22;10431;50.228;9.112;2023-07-29T03:16:10;20.80;99.90
20546;DHT22;10431;50.228;9.112;2023-07-29T03:18:38;20.80;99.90
20546;DHT22;10431;50.228;9.112;2023-07-29T03:21:04;20.80;99.90
20546;DHT22;10431;50.228;9.112;2023-07-29T03:23:31;20.80;99.90
20546;DHT22;10431;50.228;9.112;2023-07-29T03:25:58;20.80;99.90
20546;DHT22;10431;50.228;9.112;2023-07-29T03:28:28;20.80;99.90
20546;DHT22;10431;50.228;9.112;2023-07-29T03:30:55;20.80;99.90
20546;DHT22;10431;50.228;9.112;2023-07-29T03:33:21;20.80;99.90
20546;DHT22;10431;50.228;9.112;2023-07-29T03:35:47;20.80;99.90
20546;DHT22;10431;50.228;9.112;2023-07-29T03:38:13;20.80;99.90
20546;DHT22;10431;50.228;9.112;2023-07-29T03:40:40;20.80;99.90
20546;DHT22;10431;50.228;9.112;2023-07-29T03:43:06;20.80;99.90
20546;DHT22;10431;50.228;9.112;2023-07-29T03:45:33;20.80;99.90
20546;DHT22;10431;50.228;9.112;2023-07-29T03:47:59;20.80;99.90
20546;DHT22;10431;50.228;9.112;2023-07-29T03:50:25;20.80;99.90
20546;DHT22;10431;50.228;9.112;2023-07-29T03:52:51;20.80;99.90
20546;DHT22;10431;50.228;9.112;2023-07-29T03:55:18;20.80;99.90
20546;DHT22;10431;50.228;9.112;2023-07-29T03:57:44;20.80;99.90
20546;DHT22;10431;50.228;9.112;2023-07-29T04:00:10;20.80;99.90
20546;DHT22;10431;50.228;9.112;2023-07-29T04:02:41;20.80;99.90
20546;DHT22;10431;50.228;9.112;2023-07-29T04:05:08;20.80;99.90
20546;DHT22;10431;50.228;9.112;2023-07-29T04:07:34;20.80;99.90
20546;DHT22;10431;50.228;9.112;2023-07-29T04:10:01;20.80;99.90
20546;DHT22;10431;50.228;9.112;2023-07-29T04:12:27;20.80;99.90
20546;DHT22;10431;50.228;9.112;2023-07-29T04:14:53;20.80;99.90
20546;DHT22;10431;50.228;9.112;2023-07-29T04:17:19;20.80;99.90
20546;DHT22;10431;50.228;9.112;2023-07-29T04:19:45;20.80;99.90
20546;DHT22;10431;50.228;9.112;2023-07-29T04:22:11;20.80;99.90
20546;DHT22;10431;50.228;9.112;2023-07-29T04:24:37;20.80;99.90
20546;DHT22;10431;50.228;9.112;2023-07-29T04:27:04;20.80;99.90
20546;DHT22;10431;50.228;9.112;2023-07-29T04:29:30;20.80;99.90
20546;DHT22;10431;50.228;9.112;2023-07-29T04:31:56;20.80;99.90
20546;DHT22;10431;50.228;9.112;2023-07-29T04:34:22;20.80;99.90
20546;DHT22;10431;50.228;9.112;2023-07-29T04:36:48;20.80;99.90
20546;DHT22;10431;50.228;9.112;2023-07-29T04:39:14;20.80;99.90
20546;DHT22;10431;50.228;9.112;2023-07-29T04:41:40;20.80;99.90
20546;DHT22;10431;50.228;9.112;2023-07-29T04:44:06;20.80;99.90
20546;DHT22;10431;50.228;9.112;2023-07-29T04:46:33;20.80;99.90
20546;DHT22;10431;50.228;9.112;2023-07-29T04:48:59;20.80;99.90
20546;DHT22;10431;50.228;9.112;2023-07-29T04:51:25;20.80;99.90
20546;DHT22;10431;50.228;9.112;2023-07-29T04:53:51;20.80;99.90
20546;DHT22;10431;50.228;9.112;2023-07-29T04:56:17;20.80;99.90
20546;DHT22;10431;50.228;9.112;2023-07-29T04:58:44;20.80;99.90
20546;DHT22;10431;50.228;9.112;2023-07-29T05:01:11;20.80;99.90
20546;DHT22;10431;50.228;9.112;2023-07-29T05:03:37;20.80;99.90
20546;DHT22;10431;50.228;9.112;2023-07-29T05:06:05;20.80;99.90
20546;DHT22;10431;50.228;9.112;2023-07-29T05:08:31;20.80;99.90
20546;DHT22;10431;50.228;9.112;2023-07-29T05:10:57;20.80;99.90
20546;DHT22;10431;50.228;9.112;2023-07-29T05:13:23;20.80;99.90
20546;DHT22;10431;50.228;9.112;2023-07-29T05:15:49;20.80;99.90
20546;DHT22;10431;50.228;9.112;2023-07-29T05:18:16;20.80;99.90
20546;DHT22;10431;50.228;9.112;2023-07-29T05:20:42;20.80;99.90
20546;DHT22;10431;50.228;9.112;2023-07-29T05:23:09;20.80;99.90
20546;DHT22;10431;50.228;9.112;2023-07-29T05:25:35;20.80;99.90
20546;DHT22;10431;50.228;9.112;2023-07-29T05:28:01;20.80;99.90
20546;DHT22;10431;50.228;9.112;2023-07-29T05:30:28;20.80;99.90
20546;DHT22;10431;50.228;9.112;2023-07-29T05:32:59;20.80;99.90
20546;DHT22;10431;50.228;9.112;2023-07-29T05:35:25;20.80;99.90
20546;DHT22;10431;50.228;9.112;2023-07-29T05:37:51;20.80;99.90
20546;DHT22;10431;50.228;9.112;2023-07-29T05:40:17;20.80;99.90
20546;DHT22;10431;50.228;9.112;2023-07-29T05:42:44;20.80;99.90
20546;DHT22;10431;50.228;9.112;2023-07-29T05:45:11;20.70;99.90
20546;DHT22;10431;50.228;9.112;2023-07-29T05:47:37;20.70;99.90
20546;DHT22;10431;50.228;9.112;2023-07-29T05:50:03;20.70;99.90
20546;DHT22;10431;50.228;9.112;2023-07-29T05:52:33;20.70;99.90
20546;DHT22;10431;50.228;9.112;2023-07-29T05:54:59;20.70;99.90
20546;DHT22;10431;50.228;9.112;2023-07-29T05:57:26;20.70;99.90
20546;DHT22;10431;50.228;9.112;2023-07-29T05:59:52;20.70;99.90
20546;DHT22;10431;50.228;9.112;2023-07-29T06:02:18;20.70;99.90
20546;DHT22;10431;50.228;9.112;2023-07-29T06:04:44;20.70;99.90
20546;DHT22;10431;50.228;9.112;2023-07-29T06:07:11;20.70;99.90
20546;DHT22;10431;50.228;9.112;2023-07-29T06:09:37;20.70;99.90
20546;DHT22;10431;50.228;9.112;2023-07-29T06:12:03;20.80;99.90
20546;DHT22;10431;50.228;9.112;2023-07-29T06:14:29;20.80;99.90
20546;DHT22;10431;50.228;9.112;2023-07-29T06:16:55;20.80;99.90
20546;DHT22;10431;50.228;9.112;2023-07-29T06:19:21;20.80;99.90
20546;DHT22;10431;50.228;9.112;2023-07-29T06:21:47;20.80;99.90
20546;DHT22;10431;50.228;9.112;2023-07-29T06:24:13;20.80;99.90
20546;DHT22;10431;50.228;9.112;2023-07-29T06:26:39;20.80;99.90
20546;DHT22;10431;50.228;9.112;2023-07-29T06:29:05;20.90;99.90
20546;DHT22;10431;50.228;9.112;2023-07-29T06:31:31;20.80;99.90
20546;DHT22;10431;50.228;9.112;2023-07-29T06:33:58;20.80;99.90
20546;DHT22;10431;50.228;9.112;2023-07-29T06:36:25;20.80;99.90
20546;DHT22;10431;50.228;9.112;2023-07-29T06:38:51;20.80;99.90
20546;DHT22;10431;50.228;9.112;2023-07-29T06:41:17;20.90;99.90
20546;DHT22;10431;50.228;9.112;2023-07-29T06:43:43;20.80;99.90
20546;DHT22;10431;50.228;9.112;2023-07-29T06:46:09;20.80;99.90
20546;DHT22;10431;50.228;9.112;2023-07-29T06:48:35;20.90;99.90
20546;DHT22;10431;50.228;9.112;2023-07-29T06:51:01;20.90;99.90
20546;DHT22;10431;50.228;9.112;2023-07-29T06:53:28;20.80;99.90
20546;DHT22;10431;50.228;9.112;2023-07-29T06:55:54;20.80;99.90
20546;DHT22;10431;50.228;9.112;2023-07-29T06:58:20;20.80;99.90
20546;DHT22;10431;50.228;9.112;2023-07-29T07:00:46;20.80;99.90
20546;DHT22;10431;50.228;9.112;2023-07-29T07:03:12;20.80;99.90
20546;DHT22;10431;50.228;9.112;2023-07-29T07:05:38;20.90;99.90
20546;DHT22;10431;50.228;9.112;2023-07-29T07:08:04;20.90;99.90
20546;DHT22;10431;50.228;9.112;2023-07-29T07:10:30;20.90;99.90
20546;DHT22;10431;50.228;9.112;2023-07-29T07:12:56;20.80;99.90
20546;DHT22;10431;50.228;9.112;2023-07-29T07:15:22;20.80;99.90
20546;DHT22;10431;50.228;9.112;2023-07-29T07:17:48;20.80;99.90
20546;DHT22;10431;50.228;9.112;2023-07-29T07:20:14;20.90;99.90
20546;DHT22;10431;50.228;9.112;2023-07-29T07:22:40;20.80;99.90
20546;DHT22;10431;50.228;9.112;2023-07-29T07:25:06;20.80;99.90
20546;DHT22;10431;50.228;9.112;2023-07-29T07:27:32;20.80;99.90
20546;DHT22;10431;50.228;9.112;2023-07-29T07:29:58;20.80;99.90
20546;DHT22;10431;50.228;9.112;2023-07-29T07:32:24;20.80;99.90
20546;DHT22;10431;50.228;9.112;2023-07-29T07:34:50;20.80;99.90
20546;DHT22;10431;50.228;9.112;2023-07-29T07:37:16;20.90;99.90
20546;DHT22;10431;50.228;9.112;2023-07-29T07:39:42;20.80;99.90
20546;DHT22;10431;50.228;9.112;2023-07-29T07:42:08;20.90;99.90
20546;DHT22;10431;50.228;9.112;2023-07-29T07:44:34;20.80;99.90
20546;DHT22;10431;50.228;9.112;2023-07-29T07:47:00;20.90;99.90
20546;DHT22;10431;50.228;9.112;2023-07-29T07:49:26;20.80;99.90
20546;DHT22;10431;50.228;9.112;2023-07-29T07:51:52;20.90;99.90
20546;DHT22;10431;50.228;9.112;2023-07-29T07:54:18;20.80;99.90
20546;DHT22;10431;50.228;9.112;2023-07-29T07:56:44;20.90;99.90
20546;DHT22;10431;50.228;9.112;2023-07-29T07:59:10;20.80;99.90
20546;DHT22;10431;50.228;9.112;2023-07-29T08:01:36;20.80;99.90
20546;DHT22;10431;50.228;9.112;2023-07-29T08:04:03;20.90;99.90
20546;DHT22;10431;50.228;9.112;2023-07-29T08:06:29;20.90;99.90
20546;DHT22;10431;50.228;9.112;2023-07-29T08:08:56;20.80;99.90
20546;DHT22;10431;50.228;9.112;2023-07-29T08:11:22;20.80;99.90
20546;DHT22;10431;50.228;9.112;2023-07-29T08:13:48;20.80;99.90
20546;DHT22;10431;50.228;9.112;2023-07-29T08:16:14;20.90;99.90
20546;DHT22;10431;50.228;9.112;2023-07-29T08:18:40;20.90;99.90
20546;DHT22;10431;50.228;9.112;2023-07-29T08:21:06;20.90;99.90
20546;DHT22;10431;50.228;9.112;2023-07-29T08:23:34;20.90;99.90
20546;DHT22;10431;50.228;9.112;2023-07-29T08:26:01;20.90;99.90
20546;DHT22;10431;50.228;9.112;2023-07-29T08:28:37;20.90;99.90
20546;DHT22;10431;50.228;9.112;2023-07-29T08:31:03;20.90;99.90
20546;DHT22;10431;50.228;9.112;2023-07-29T08:33:30;20.90;99.90
20546;DHT22;10431;50.228;9.112;2023-07-29T08:35:56;21.00;99.90
20546;DHT22;10431;50.228;9.112;2023-07-29T08:38:22;21.00;99.90
20546;DHT22;10431;50.228;9.112;2023-07-29T08:43:33;21.10;99.90
20546;DHT22;10431;50.228;9.112;2023-07-29T08:45:59;21.10;99.90
20546;DHT22;10431;50.228;9.112;2023-07-29T08:48:32;21.10;99.90
20546;DHT22;10431;50.228;9.112;2023-07-29T08:50:59;21.10;99.90
20546;DHT22;10431;50.228;9.112;2023-07-29T08:53:25;21.20;99.90
20546;DHT22;10431;50.228;9.112;2023-07-29T08:55:52;21.20;99.90
20546;DHT22;10431;50.228;9.112;2023-07-29T08:58:19;21.30;99.90
20546;DHT22;10431;50.228;9.112;2023-07-29T09:00:47;21.30;99.90
20546;DHT22;10431;50.228;9.112;2023-07-29T09:03:13;21.30;99.90
20546;DHT22;10431;50.228;9.112;2023-07-29T09:05:39;21.30;99.90
20546;DHT22;10431;50.228;9.112;2023-07-29T09:08:05;21.40;99.90
20546;DHT22;10431;50.228;9.112;2023-07-29T09:10:36;21.40;99.90
20546;DHT22;10431;50.228;9.112;2023-07-29T09:13:02;21.40;99.90
20546;DHT22;10431;50.228;9.112;2023-07-29T09:15:30;21.50;99.90
20546;DHT22;10431;50.228;9.112;2023-07-29T09:17:56;21.50;99.90
20546;DHT22;10431;50.228;9.112;2023-07-29T09:20:24;21.60;99.90
20546;DHT22;10431;50.228;9.112;2023-07-29T09:22:50;21.60;99.90
20546;DHT22;10431;50.228;9.112;2023-07-29T09:25:16;21.70;99.90
20546;DHT22;10431;50.228;9.112;2023-07-29T09:27:42;21.70;99.90
20546;DHT22;10431;50.228;9.112;2023-07-29T09:30:15;21.70;99.90
20546;DHT22;10431;50.228;9.112;2023-07-29T09:32:41;21.70;99.90
20546;DHT22;10431;50.228;9.112;2023-07-29T09:35:10;21.70;99.90
20546;DHT22;10431;50.228;9.112;2023-07-29T09:37:37;21.70;99.90
20546;DHT22;10431;50.228;9.112;2023-07-29T09:40:04;21.70;99.90
20546;DHT22;10431;50.228;9.112;2023-07-29T09:42:30;21.80;99.90
20546;DHT22;10431;50.228;9.112;2023-07-29T09:44:56;21.70;99.90
20546;DHT22;10431;50.228;9.112;2023-07-29T09:47:23;21.70;99.90
20546;DHT22;10431;50.228;9.112;2023-07-29T09:49:49;21.70;99.90
20546;DHT22;10431;50.228;9.112;2023-07-29T09:52:16;21.70;99.90
20546;DHT22;10431;50.228;9.112;2023-07-29T09:54:42;21.70;99.90
20546;DHT22;10431;50.228;9.112;2023-07-29T09:57:09;21.70;99.90
20546;DHT22;10431;50.228;9.112;2023-07-29T09:59:35;21.70;99.90
20546;DHT22;10431;50.228;9.112;2023-07-29T10:02:01;21.80;99.90
20546;DHT22;10431;50.228;9.112;2023-07-29T10:04:27;21.80;99.90
20546;DHT22;10431;50.228;9.112;2023-07-29T10:06:54;21.80;99.90
20546;DHT22;10431;50.228;9.112;2023-07-29T10:09:20;21.80;99.90
20546;DHT22;10431;50.228;9.112;2023-07-29T10:11:47;21.70;99.90
20546;DHT22;10431;50.228;9.112;2023-07-29T10:14:13;21.80;99.90
20546;DHT22;10431;50.228;9.112;2023-07-29T10:16:39;21.90;99.90
20546;DHT22;10431;50.228;9.112;2023-07-29T10:19:07;21.80;99.90
20546;DHT22;10431;50.228;9.112;2023-07-29T10:21:33;21.90;99.90
20546;DHT22;10431;50.228;9.112;2023-07-29T10:24:00;21.90;99.90
20546;DHT22;10431;50.228;9.112;2023-07-29T10:26:26;22.00;99.90
20546;DHT22;10431;50.228;9.112;2023-07-29T10:28:54;22.10;99.90
20546;DHT22;10431;50.228;9.112;2023-07-29T10:31:22;22.10;99.90
20546;DHT22;10431;50.228;9.112;2023-07-29T10:33:48;22.10;99.90
20546;DHT22;10431;50.228;9.112;2023-07-29T10:36:14;22.00;99.90
20546;DHT22;10431;50.228;9.112;2023-07-29T10:38:41;22.00;99.90
20546;DHT22;10431;50.228;9.112;2023-07-29T10:41:07;21.90;99.90
20546;DHT22;10431;50.228;9.112;2023-07-29T10:43:34;21.80;99.90
20546;DHT22;10431;50.228;9.112;2023-07-29T10:48:52;21.90;99.90
20546;DHT22;10431;50.228;9.112;2023-07-29T10:51:35;22.00;99.90
20546;DHT22;10431;50.228;9.112;2023-07-29T10:54:02;22.10;99.90
20546;DHT22;10431;50.228;9.112;2023-07-29T10:56:34;22.10;99.90
20546;DHT22;10431;50.228;9.112;2023-07-29T11:01:41;22.00;99.90
20546;DHT22;10431;50.228;9.112;2023-07-29T11:14:57;21.80;99.90
20546;DHT22;10431;50.228;9.112;2023-07-29T11:17:23;21.80;99.90
20546;DHT22;10431;50.228;9.112;2023-07-29T11:19:49;21.80;99.90
20546;DHT22;10431;50.228;9.112;2023-07-29T11:22:15;21.70;99.90
20546;DHT22;10431;50.228;9.112;2023-07-29T11:24:42;21.80;99.90
20546;DHT22;10431;50.228;9.112;2023-07-29T11:27:11;21.70;99.90
20546;DHT22;10431;50.228;9.112;2023-07-29T11:29:37;21.70;99.90
20546;DHT22;10431;50.228;9.112;2023-07-29T11:32:03;21.70;99.90
20546;DHT22;10431;50.228;9.112;2023-07-29T11:34:32;21.70;99.90
20546;DHT22;10431;50.228;9.112;2023-07-29T11:36:58;21.70;99.90
20546;DHT22;10431;50.228;9.112;2023-07-29T11:39:24;21.70;99.90
20546;DHT22;10431;50.228;9.112;2023-07-29T11:41:50;21.70;99.90
20546;DHT22;10431;50.228;9.112;2023-07-29T11:44:16;21.70;99.90
20546;DHT22;10431;50.228;9.112;2023-07-29T11:46:43;21.70;99.90
20546;DHT22;10431;50.228;9.112;2023-07-29T11:49:09;21.70;99.90
20546;DHT22;10431;50.228;9.112;2023-07-29T11:51:35;21.70;99.90
20546;DHT22;10431;50.228;9.112;2023-07-29T11:54:02;21.70;99.90
20546;DHT22;10431;50.228;9.112;2023-07-29T11:56:29;21.70;99.90
20546;DHT22;10431;50.228;9.112;2023-07-29T11:58:56;21.70;99.90
20546;DHT22;10431;50.228;9.112;2023-07-29T12:01:22;21.70;99.90
20546;DHT22;10431;50.228;9.112;2023-07-29T12:03:49;21.70;99.90
20546;DHT22;10431;50.228;9.112;2023-07-29T12:06:15;21.70;99.90
20546;DHT22;10431;50.228;9.112;2023-07-29T12:08:41;21.70;99.90
20546;DHT22;10431;50.228;9.112;2023-07-29T12:11:08;21.70;99.90
20546;DHT22;10431;50.228;9.112;2023-07-29T12:13:35;21.70;99.90
20546;DHT22;10431;50.228;9.112;2023-07-29T12:16:02;21.70;99.90
20546;DHT22;10431;50.228;9.112;2023-07-29T12:18:35;21.70;99.90
20546;DHT22;10431;50.228;9.112;2023-07-29T12:21:02;21.70;99.90
20546;DHT22;10431;50.228;9.112;2023-07-29T12:23:28;21.70;99.90
20546;DHT22;10431;50.228;9.112;2023-07-29T12:25:58;21.80;99.90
20546;DHT22;10431;50.228;9.112;2023-07-29T12:28:24;21.80;99.90
20546;DHT22;10431;50.228;9.112;2023-07-29T12:30:54;21.70;99.90
20546;DHT22;10431;50.228;9.112;2023-07-29T12:33:33;21.70;99.90
20546;DHT22;10431;50.228;9.112;2023-07-29T12:35:59;21.70;99.90
20546;DHT22;10431;50.228;9.112;2023-07-29T12:38:28;21.70;99.90
20546;DHT22;10431;50.228;9.112;2023-07-29T12:40:55;21.70;99.90
20546;DHT22;10431;50.228;9.112;2023-07-29T12:43:21;21.70;99.90
20546;DHT22;10431;50.228;9.112;2023-07-29T12:45:50;21.80;99.90
20546;DHT22;10431;50.228;9.112;2023-07-29T12:48:16;21.70;99.90
20546;DHT22;10431;50.228;9.112;2023-07-29T12:50:42;21.70;99.90
20546;DHT22;10431;50.228;9.112;2023-07-29T12:53:08;21.70;99.90
20546;DHT22;10431;50.228;9.112;2023-07-29T12:55:38;21.70;99.90
20546;DHT22;10431;50.228;9.112;2023-07-29T12:58:04;21.70;99.90
20546;DHT22;10431;50.228;9.112;2023-07-29T13:00:30;21.70;99.90
20546;DHT22;10431;50.228;9.112;2023-07-29T13:02:56;21.70;99.90
20546;DHT22;10431;50.228;9.112;2023-07-29T13:05:22;21.70;99.90
20546;DHT22;10431;50.228;9.112;2023-07-29T13:07:48;21.70;99.90
20546;DHT22;10431;50.228;9.112;2023-07-29T13:10:14;21.80;99.90
20546;DHT22;10431;50.228;9.112;2023-07-29T13:12:40;21.80;99.90
20546;DHT22;10431;50.228;9.112;2023-07-29T13:15:06;21.80;99.90
20546;DHT22;10431;50.228;9.112;2023-07-29T13:17:33;21.80;99.90
20546;DHT22;10431;50.228;9.112;2023-07-29T13:19:59;21.80;99.90
20546;DHT22;10431;50.228;9.112;2023-07-29T13:22:25;21.90;99.90
20546;DHT22;10431;50.228;9.112;2023-07-29T13:24:51;22.00;99.90
20546;DHT22;10431;50.228;9.112;2023-07-29T13:27:17;22.00;99.90
20546;DHT22;10431;50.228;9.112;2023-07-29T13:29:43;21.90;99.90
20546;DHT22;10431;50.228;9.112;2023-07-29T13:32:09;21.90;99.90
20546;DHT22;10431;50.228;9.112;2023-07-29T13:34:35;21.90;99.90
20546;DHT22;10431;50.228;9.112;2023-07-29T13:37:01;22.00;99.90
20546;DHT22;10431;50.228;9.112;2023-07-29T13:39:27;22.00;99.90
20546;DHT22;10431;50.228;9.112;2023-07-29T13:41:54;22.00;99.90
20546;DHT22;10431;50.228;9.112;2023-07-29T13:44:20;22.00;99.90
20546;DHT22;10431;50.228;9.112;2023-07-29T13:46:46;21.90;99.90
20546;DHT22;10431;50.228;9.112;2023-07-29T13:49:12;21.90;99.90
20546;DHT22;10431;50.228;9.112;2023-07-29T13:51:38;21.90;99.90
20546;DHT22;10431;50.228;9.112;2023-07-29T13:54:04;21.90;99.90
20546;DHT22;10431;50.228;9.112;2023-07-29T13:56:30;21.90;99.90
20546;DHT22;10431;50.228;9.112;2023-07-29T13:58:56;21.90;99.90
20546;DHT22;10431;50.228;9.112;2023-07-29T14:01:22;21.90;99.90
20546;DHT22;10431;50.228;9.112;2023-07-29T14:03:49;21.90;99.90
20546;DHT22;10431;50.228;9.112;2023-07-29T14:06:15;21.90;99.90
20546;DHT22;10431;50.228;9.112;2023-07-29T14:08:41;21.90;99.90
20546;DHT22;10431;50.228;9.112;2023-07-29T14:11:07;21.90;99.90
20546;DHT22;10431;50.228;9.112;2023-07-29T14:13:33;21.90;99.90
20546;DHT22;10431;50.228;9.112;2023-07-29T14:16:02;21.90;99.90
20546;DHT22;10431;50.228;9.112;2023-07-29T14:18:28;21.90;99.90
20546;DHT22;10431;50.228;9.112;2023-07-29T14:20:54;21.80;99.90
20546;DHT22;10431;50.228;9.112;2023-07-29T14:23:20;21.90;99.90
20546;DHT22;10431;50.228;9.112;2023-07-29T14:25:46;21.90;99.90
20546;DHT22;10431;50.228;9.112;2023-07-29T14:28:13;22.00;99.90
20546;DHT22;10431;50.228;9.112;2023-07-29T14:30:39;22.00;99.90
20546;DHT22;10431;50.228;9.112;2023-07-29T14:35:43;22.70;99.90
20546;DHT22;10431;50.228;9.112;2023-07-29T14:38:09;22.50;99.90
20546;DHT22;10431;50.228;9.112;2023-07-29T14:40:35;22.30;99.90
20546;DHT22;10431;50.228;9.112;2023-07-29T14:43:02;22.20;99.90
20546;DHT22;10431;50.228;9.112;2023-07-29T14:45:28;22.20;99.90
20546;DHT22;10431;50.228;9.112;2023-07-29T14:47:54;22.30;99.90
20546;DHT22;10431;50.228;9.112;2023-07-29T14:50:20;22.20;99.90
20546;DHT22;10431;50.228;9.112;2023-07-29T14:52:46;22.10;99.90
20546;DHT22;10431;50.228;9.112;2023-07-29T14:55:13;22.10;99.90
20546;DHT22;10431;50.228;9.112;2023-07-29T14:57:39;22.00;99.90
20546;DHT22;10431;50.228;9.112;2023-07-29T15:00:07;22.00;99.90
20546;DHT22;10431;50.228;9.112;2023-07-29T15:02:34;22.00;99.90
20546;DHT22;10431;50.228;9.112;2023-07-29T15:05:00;22.00;99.90
20546;DHT22;10431;50.228;9.112;2023-07-29T15:07:26;22.00;99.90
20546;DHT22;10431;50.228;9.112;2023-07-29T15:09:53;22.00;99.90
20546;DHT22;10431;50.228;9.112;2023-07-29T15:12:19;22.00;99.90
20546;DHT22;10431;50.228;9.112;2023-07-29T15:14:45;22.00;99.90
20546;DHT22;10431;50.228;9.112;2023-07-29T15:17:13;22.00;99.90
20546;DHT22;10431;50.228;9.112;2023-07-29T15:19:39;22.00;99.90
20546;DHT22;10431;50.228;9.112;2023-07-29T15:22:05;21.90;99.90
20546;DHT22;10431;50.228;9.112;2023-07-29T15:24:32;22.00;99.90
20546;DHT22;10431;50.228;9.112;2023-07-29T15:26:58;22.00;99.90
20546;DHT22;10431;50.228;9.112;2023-07-29T15:29:24;22.00;99.90
20546;DHT22;10431;50.228;9.112;2023-07-29T15:31:50;22.00;99.90
20546;DHT22;10431;50.228;9.112;2023-07-29T15:34:16;22.00;99.90
20546;DHT22;10431;50.228;9.112;2023-07-29T15:36:42;22.00;99.90
20546;DHT22;10431;50.228;9.112;2023-07-29T15:39:09;22.00;99.90
20546;DHT22;10431;50.228;9.112;2023-07-29T15:41:35;21.90;99.90
20546;DHT22;10431;50.228;9.112;2023-07-29T15:44:01;22.00;99.90
20546;DHT22;10431;50.228;9.112;2023-07-29T15:46:27;22.00;99.90
20546;DHT22;10431;50.228;9.112;2023-07-29T15:48:53;22.00;99.90
20546;DHT22;10431;50.228;9.112;2023-07-29T15:51:26;22.10;99.90
20546;DHT22;10431;50.228;9.112;2023-07-29T15:53:52;22.10;99.90